Time;durP1;ratioP1;P1;durP2;ratioP2;P2;SDS_P1;SDS_P2;PMS_P1;PMS_P2;Temp;Humidity;BMP_temperature;BMP_pressure;BME280_temperature;BME280_humidity;BME280_pressure;Samples;Min_cycle;Max_cycle;Signal;HPM_P1;HPM_P2
2023/04/11 00:01:28;;;;;;;6.60;2.47;;;9.70;76.10;;;;;;5014672;28;20123;-68
2023/04/11 00:03:55;;;;;;;5.05;1.10;;;9.60;99.90;;;;;;5004536;28;21252;-69
2023/04/11 00:06:22;;;;;;;6.15;0.77;;;9.50;1.00;;;;;;5018077;28;20526;-69
2023/04/11 00:08:48;;;;;;;4.82;0.50;;;9.20;99.90;;;;;;5003549;28;20045;-69
2023/04/11 00:11:13;;;;;;;7.60;0.60;;;9.00;99.90;;;;;;5047179;28;20356;-69
2023/04/11 00:13:40;;;;;;;5.65;0.93;;;8.80;99.90;;;;;;5020429;28;20471;-69
2023/04/11 00:16:07;;;;;;;4.00;0.40;;;8.60;99.90;;;;;;5029726;28;20045;-69
2023/04/11 00:18:35;;;;;;;4.75;0.40;;;8.50;99.90;;;;;;5037772;28;20183;-68
2023/04/11 00:21:03;;;;;;;3.78;0.20;;;8.30;99.90;;;;;;5018119;28;20091;-69
2023/04/11 00:23:29;;;;;;;5.45;0.47;;;8.10;99.90;;;;;;5017893;28;20057;-68
2023/04/11 00:25:54;;;;;;;3.55;0.40;;;8.10;99.90;;;;;;5017117;28;20095;-70
2023/04/11 00:28:20;;;;;;;4.75;0.45;;;8.00;99.90;;;;;;5021647;28;20964;-67
2023/04/11 00:30:46;;;;;;;3.28;0.40;;;7.90;99.90;;;;;;5020452;28;20041;-67
2023/04/11 00:33:11;;;;;;;7.57;0.80;;;7.80;99.90;;;;;;5018858;28;20048;-68
2023/04/11 00:35:39;;;;;;;5.07;0.50;;;7.90;99.90;;;;;;5018048;28;20822;-68
2023/04/11 00:38:05;;;;;;;4.78;0.50;;;7.70;99.90;;;;;;5029962;28;20036;-68
2023/04/11 00:40:31;;;;;;;5.47;0.40;;;7.50;99.90;;;;;;5001579;28;20720;-69
2023/04/11 00:42:57;;;;;;;3.58;0.40;;;7.60;99.90;;;;;;5019832;28;20050;-68
2023/04/11 00:45:23;;;;;;;5.10;0.40;;;7.50;99.90;;;;;;5012092;28;20056;-69
2023/04/11 00:47:49;;;;;;;4.78;0.60;;;7.50;99.90;;;;;;5016835;28;20041;-68
2023/04/11 00:50:15;;;;;;;6.93;1.00;;;7.50;99.90;;;;;;5010502;28;20092;-68
2023/04/11 00:52:45;;;;;;;7.63;0.70;;;7.50;99.90;;;;;;5033902;28;20161;-69
2023/04/11 00:55:11;;;;;;;8.40;0.85;;;7.50;99.90;;;;;;5039148;28;20153;-68
2023/04/11 00:57:38;;;;;;;11.32;0.95;;;7.50;99.90;;;;;;5017121;28;20045;-68
2023/04/11 01:00:05;;;;;;;7.47;0.80;;;7.50;1.00;;;;;;5017758;28;20475;-69
2023/04/11 01:02:32;;;;;;;10.35;1.08;;;7.40;1.00;;;;;;5016769;28;20504;-70
2023/04/11 01:04:59;;;;;;;7.32;0.80;;;7.40;1.00;;;;;;5012311;28;20049;-68
2023/04/11 01:07:25;;;;;;;9.07;1.13;;;7.30;1.00;;;;;;5012042;28;20094;-69
2023/04/11 01:09:52;;;;;;;8.82;1.25;;;7.30;1.00;;;;;;5008636;28;20041;-68
2023/04/11 01:12:20;;;;;;;10.55;1.23;;;7.20;1.00;;;;;;5017988;28;20036;-68
2023/04/11 01:14:46;;;;;;;5.78;1.13;;;7.10;1.00;;;;;;4999732;28;20038;-68
2023/04/11 01:17:13;;;;;;;7.13;0.93;;;7.20;1.00;;;;;;5019511;28;20049;-68
2023/04/11 01:19:39;;;;;;;12.50;1.88;;;7.20;1.00;;;;;;5019959;28;20131;-67
2023/04/11 01:22:06;;;;;;;11.18;1.45;;;7.10;1.00;;;;;;5016639;28;20052;-68
2023/04/11 01:24:32;;;;;;;17.80;1.65;;;7.30;1.00;;;;;;5018006;28;20045;-68
2023/04/11 01:26:57;;;;;;;12.63;1.60;;;7.20;1.00;;;;;;5003555;28;20544;-68
2023/04/11 01:29:23;;;;;;;14.45;1.75;;;7.20;1.00;;;;;;5016823;28;20125;-68
2023/04/11 01:31:50;;;;;;;15.93;1.83;;;7.10;1.00;;;;;;5015952;28;20076;-68
2023/04/11 01:34:17;;;;;;;13.32;1.83;;;7.20;1.00;;;;;;5011147;28;20550;-69
2023/04/11 01:36:44;;;;;;;18.15;2.00;;;7.10;1.00;;;;;;5004677;28;20407;-69
2023/04/11 01:39:09;;;;;;;19.52;2.25;;;7.00;1.00;;;;;;5020241;28;20152;-68
2023/04/11 01:41:36;;;;;;;18.55;2.03;;;7.10;1.00;;;;;;5015343;28;20033;-69
2023/04/11 01:44:03;;;;;;;17.77;1.77;;;7.00;1.00;;;;;;5026901;28;20060;-69
2023/04/11 01:46:29;;;;;;;18.33;2.50;;;7.10;1.00;;;;;;5014681;28;20037;-70
2023/04/11 01:48:57;;;;;;;19.80;2.53;;;7.20;6.90;;;;;;5010876;28;20383;-69
2023/04/11 01:51:23;;;;;;;19.23;2.40;;;7.10;2.50;;;;;;5035397;28;20222;-69
2023/04/11 01:53:48;;;;;;;18.23;2.38;;;7.20;11.90;;;;;;5009673;28;20102;-69
2023/04/11 01:56:14;;;;;;;12.63;1.80;;;7.20;16.20;;;;;;5021511;28;20041;-69
2023/04/11 01:58:40;;;;;;;13.52;2.10;;;7.10;22.40;;;;;;5025004;28;20187;-69
2023/04/11 02:01:06;;;;;;;16.38;1.80;;;7.10;48.30;;;;;;5016346;28;20423;-70
2023/04/11 02:03:32;;;;;;;13.98;2.17;;;7.20;58.50;;;;;;5008657;28;20255;-68
2023/04/11 02:05:58;;;;;;;14.25;1.73;;;7.30;57.80;;;;;;4996581;28;20603;-69
2023/04/11 02:08:23;;;;;;;15.02;1.95;;;7.10;59.30;;;;;;4999831;28;20041;-69
2023/04/11 02:10:49;;;;;;;16.17;1.92;;;7.20;82.00;;;;;;4997929;28;20049;-68
2023/04/11 02:13:15;;;;;;;11.68;1.50;;;7.30;97.70;;;;;;4999396;28;20044;-69
2023/04/11 02:15:41;;;;;;;14.02;1.20;;;7.20;99.90;;;;;;5003428;28;20102;-69
2023/04/11 02:18:08;;;;;;;12.98;1.33;;;7.20;99.90;;;;;;5027264;28;20080;-70
2023/04/11 02:20:39;;;;;;;15.18;1.30;;;7.30;99.90;;;;;;5017832;28;20087;-70
2023/04/11 02:23:05;;;;;;;11.82;1.45;;;7.40;99.90;;;;;;5016362;28;20116;-70
2023/04/11 02:25:31;;;;;;;17.65;1.42;;;7.40;99.90;;;;;;5033061;28;20095;-69
2023/04/11 02:27:57;;;;;;;11.57;1.58;;;7.40;99.90;;;;;;5018820;28;20307;-70
2023/04/11 02:30:23;;;;;;;12.50;1.33;;;7.40;99.90;;;;;;5032809;28;20525;-68
2023/04/11 02:32:50;;;;;;;13.35;1.38;;;7.30;96.60;;;;;;5014298;28;20033;-70
2023/04/11 02:35:16;;;;;;;10.77;1.00;;;7.30;99.90;;;;;;5020400;28;20534;-70
2023/04/11 02:37:42;;;;;;;9.07;1.23;;;7.40;99.90;;;;;;5016491;28;20388;-69
2023/04/11 02:40:09;;;;;;;12.10;0.90;;;7.30;99.90;;;;;;5003966;28;20034;-69
2023/04/11 02:42:35;;;;;;;10.05;0.93;;;7.30;99.90;;;;;;4996889;28;20072;-70
2023/04/11 02:45:01;;;;;;;7.38;0.90;;;7.30;99.90;;;;;;5006042;28;20047;-69
2023/04/11 02:47:27;;;;;;;8.77;0.95;;;7.40;99.90;;;;;;5016488;28;20110;-69
2023/04/11 02:49:52;;;;;;;3.38;0.43;;;7.30;99.90;;;;;;5008888;28;20051;-68
2023/04/11 02:52:18;;;;;;;6.78;0.60;;;7.30;99.90;;;;;;5015177;28;20037;-67
2023/04/11 02:54:45;;;;;;;2.55;0.35;;;7.40;99.90;;;;;;5026869;28;20178;-68
2023/04/11 02:57:11;;;;;;;7.38;0.75;;;7.40;99.90;;;;;;5015366;28;20788;-69
2023/04/11 02:59:37;;;;;;;5.10;0.60;;;7.40;99.90;;;;;;5001031;28;20268;-68
2023/04/11 03:02:03;;;;;;;8.55;0.60;;;7.30;99.90;;;;;;5010025;28;20033;-68
2023/04/11 03:04:29;;;;;;;6.85;0.40;;;7.20;99.90;;;;;;5017406;28;20034;-67
2023/04/11 03:06:55;;;;;;;7.22;0.75;;;7.10;99.90;;;;;;5015204;28;20045;-68
2023/04/11 03:09:22;;;;;;;5.53;0.40;;;7.10;99.90;;;;;;5014982;28;20566;-69
2023/04/11 03:11:47;;;;;;;5.47;0.40;;;7.10;99.90;;;;;;5017619;28;20059;-68
2023/04/11 03:14:13;;;;;;;6.35;0.73;;;7.20;99.90;;;;;;5016157;28;20033;-68
2023/04/11 03:16:39;;;;;;;6.43;0.52;;;7.20;99.90;;;;;;5006026;28;20772;-68
2023/04/11 03:19:05;;;;;;;4.75;0.90;;;7.20;99.90;;;;;;5017777;28;20701;-68
2023/04/11 03:21:30;;;;;;;5.53;0.47;;;7.10;99.90;;;;;;5007004;28;20080;-67
2023/04/11 03:23:56;;;;;;;7.22;0.63;;;7.20;99.90;;;;;;5013496;28;20060;-68
2023/04/11 03:26:25;;;;;;;6.45;0.57;;;7.10;99.90;;;;;;5020748;28;20270;-67
2023/04/11 03:28:52;;;;;;;5.90;0.90;;;7.20;99.90;;;;;;5021786;28;20119;-68
2023/04/11 03:31:18;;;;;;;3.67;0.80;;;7.20;99.90;;;;;;5018866;28;20357;-68
2023/04/11 03:33:45;;;;;;;6.65;1.08;;;7.20;99.90;;;;;;5042161;28;20049;-68
2023/04/11 03:36:10;;;;;;;6.53;1.45;;;7.20;99.90;;;;;;5020155;28;20053;-70
2023/04/11 03:38:36;;;;;;;6.60;1.00;;;7.30;99.90;;;;;;5009472;28;20029;-68
2023/04/11 03:41:02;;;;;;;7.70;1.15;;;7.30;99.90;;;;;;5020700;28;20035;-67
2023/04/11 03:43:28;;;;;;;5.93;1.10;;;7.20;99.90;;;;;;5037457;28;20155;-67
2023/04/11 03:45:54;;;;;;;9.10;1.88;;;7.00;99.90;;;;;;5009371;28;20083;-68
2023/04/11 03:48:20;;;;;;;10.45;2.08;;;7.30;99.90;;;;;;5009665;28;20107;-68
2023/04/11 03:50:46;;;;;;;7.53;1.25;;;7.10;99.90;;;;;;5019798;28;20045;-67
2023/04/11 03:53:11;;;;;;;6.82;1.38;;;7.30;99.90;;;;;;5013935;28;20128;-67
2023/04/11 03:55:37;;;;;;;6.00;1.40;;;7.20;99.90;;;;;;5000911;28;20080;-67
2023/04/11 03:58:03;;;;;;;9.70;1.90;;;7.10;99.90;;;;;;5011190;28;20049;-68
2023/04/11 04:00:29;;;;;;;9.25;2.30;;;7.00;99.90;;;;;;5017235;28;20037;-67
2023/04/11 04:02:54;;;;;;;11.93;1.95;;;7.30;99.90;;;;;;5018036;28;20494;-69
2023/04/11 04:05:20;;;;;;;7.85;1.77;;;7.30;99.90;;;;;;5020303;28;20107;-68
2023/04/11 04:07:46;;;;;;;7.45;1.52;;;7.10;99.90;;;;;;5018863;28;20080;-68
2023/04/11 04:10:12;;;;;;;10.07;1.60;;;7.10;99.90;;;;;;5023705;28;20511;-68
2023/04/11 04:12:38;;;;;;;10.40;2.08;;;7.30;99.90;;;;;;5012563;28;20036;-67
2023/04/11 04:15:05;;;;;;;7.78;1.40;;;7.00;99.90;;;;;;5016913;28;20071;-68
2023/04/11 04:17:30;;;;;;;10.70;1.75;;;7.20;99.90;;;;;;5020217;28;20093;-67
2023/04/11 04:19:56;;;;;;;10.40;1.60;;;7.20;99.90;;;;;;5017813;28;20069;-67
2023/04/11 04:22:22;;;;;;;8.32;1.55;;;7.20;99.90;;;;;;5003411;28;20440;-68
2023/04/11 04:24:48;;;;;;;10.75;1.48;;;7.10;99.90;;;;;;5036765;28;20131;-68
2023/04/11 04:27:16;;;;;;;11.15;1.58;;;7.20;99.90;;;;;;5023314;28;20037;-68
2023/04/11 04:29:46;;;;;;;12.73;1.58;;;7.00;99.90;;;;;;5018339;28;20090;-68
2023/04/11 04:32:13;;;;;;;12.73;1.83;;;7.00;99.90;;;;;;5028348;28;20044;-68
2023/04/11 04:34:45;;;;;;;10.70;1.88;;;7.10;99.90;;;;;;5018455;28;20034;-69
2023/04/11 04:37:20;;;;;;;12.38;2.00;;;7.00;99.90;;;;;;5018534;28;20495;-68
2023/04/11 04:40:07;;;;;;;9.93;2.17;;;7.10;99.90;;;;;;4995994;28;20499;-68
2023/04/11 04:42:35;;;;;;;12.82;2.63;;;7.00;99.90;;;;;;5018002;28;20041;-67
2023/04/11 04:45:01;;;;;;;14.82;3.10;;;7.30;99.90;;;;;;5028703;28;20184;-68
2023/04/11 04:47:34;;;;;;;10.18;2.53;;;7.30;99.90;;;;;;5031269;28;20467;-67
2023/04/11 04:50:00;;;;;;;13.00;2.63;;;7.30;99.90;;;;;;5012383;28;20120;-68
2023/04/11 04:52:27;;;;;;;15.88;2.75;;;7.30;99.90;;;;;;5032665;28;20052;-68
2023/04/11 04:54:57;;;;;;;10.65;2.63;;;7.10;99.90;;;;;;5034319;28;20041;-67
2023/04/11 04:57:28;;;;;;;11.45;2.17;;;7.20;99.90;;;;;;5017397;28;20079;-67
2023/04/11 04:59:55;;;;;;;10.75;2.30;;;7.10;99.90;;;;;;5036767;28;20033;-67
2023/04/11 05:02:20;;;;;;;13.10;3.08;;;7.20;99.90;;;;;;5033515;28;20491;-67
2023/04/11 05:04:49;;;;;;;13.88;3.15;;;7.20;99.90;;;;;;5023273;28;20048;-68
2023/04/11 05:07:19;;;;;;;14.38;2.75;;;7.20;99.90;;;;;;5019304;28;20059;-68
2023/04/11 05:09:45;;;;;;;15.27;3.28;;;7.40;99.90;;;;;;5016875;28;20048;-69
2023/04/11 05:12:14;;;;;;;14.70;2.83;;;7.30;99.90;;;;;;5003971;28;20249;-67
2023/04/11 05:14:39;;;;;;;13.20;2.70;;;7.10;99.90;;;;;;5038534;28;20450;-68
2023/04/11 05:17:05;;;;;;;12.43;2.78;;;7.30;99.90;;;;;;5017413;28;20041;-67
2023/04/11 05:19:31;;;;;;;11.60;2.40;;;7.30;99.90;;;;;;5036953;28;20037;-68
2023/04/11 05:21:57;;;;;;;13.73;2.50;;;7.30;99.90;;;;;;5018888;28;20102;-67
2023/04/11 05:24:23;;;;;;;12.73;3.20;;;7.60;99.90;;;;;;5020082;28;20049;-69
2023/04/11 05:26:49;;;;;;;17.63;2.97;;;7.50;99.90;;;;;;5010796;28;20436;-66
2023/04/11 05:29:15;;;;;;;11.30;2.63;;;7.40;99.90;;;;;;5013470;28;20439;-68
2023/04/11 05:31:40;;;;;;;11.77;2.38;;;7.40;99.90;;;;;;5015860;28;20492;-67
2023/04/11 05:34:06;;;;;;;11.70;2.58;;;7.50;99.90;;;;;;5015312;28;20345;-67
2023/04/11 05:36:32;;;;;;;12.15;2.40;;;7.50;99.90;;;;;;5017510;28;20063;-68
2023/04/11 05:38:57;;;;;;;13.95;2.88;;;7.60;99.90;;;;;;5024060;28;20867;-67
2023/04/11 05:41:23;;;;;;;9.23;2.20;;;7.60;99.90;;;;;;5016288;28;20485;-67
2023/04/11 05:43:49;;;;;;;12.10;2.50;;;7.80;99.90;;;;;;5018570;28;20041;-67
2023/04/11 05:46:16;;;;;;;15.25;2.22;;;7.50;99.90;;;;;;5000742;28;20507;-67
2023/04/11 05:48:41;;;;;;;8.90;1.52;;;7.50;99.90;;;;;;5016250;28;20087;-67
2023/04/11 05:51:07;;;;;;;6.93;0.85;;;7.50;99.90;;;;;;5014658;28;20511;-67
2023/04/11 05:53:33;;;;;;;4.60;0.60;;;7.50;99.90;;;;;;5010801;28;20286;-67
2023/04/11 05:56:00;;;;;;;5.38;1.10;;;7.40;66.40;;;;;;5016105;28;20048;-68
2023/04/11 05:58:26;;;;;;;5.47;0.98;;;7.40;63.00;;;;;;5017171;28;20080;-68
2023/04/11 06:00:51;;;;;;;5.20;0.65;;;7.40;53.10;;;;;;5019244;28;20224;-67
2023/04/11 06:03:17;;;;;;;3.92;0.65;;;7.20;54.90;;;;;;5017466;28;20139;-68
2023/04/11 06:05:43;;;;;;;4.65;1.10;;;7.30;64.80;;;;;;5012629;28;20048;-66
2023/04/11 06:08:10;;;;;;;6.03;1.58;;;7.00;75.50;;;;;;5000486;28;20044;-67
2023/04/11 06:10:36;;;;;;;9.07;1.83;;;6.90;99.90;;;;;;5012210;28;20079;-67
2023/04/11 06:13:01;;;;;;;7.57;1.30;;;7.00;99.90;;;;;;5012797;28;20041;-68
2023/04/11 06:15:28;;;;;;;8.82;2.13;;;7.00;99.90;;;;;;4996758;28;20053;-68
2023/04/11 06:17:54;;;;;;;10.70;1.88;;;6.80;99.90;;;;;;4996745;28;20073;-67
2023/04/11 06:20:21;;;;;;;7.55;1.13;;;6.60;99.90;;;;;;5029327;28;20044;-68
2023/04/11 06:22:50;;;;;;;8.50;1.55;;;6.30;99.90;;;;;;5012457;28;20147;-68
2023/04/11 06:25:20;;;;;;;5.97;0.85;;;6.40;99.90;;;;;;5024718;28;20478;-67
2023/04/11 06:27:46;;;;;;;6.82;0.90;;;6.20;99.90;;;;;;5001125;28;20522;-67
2023/04/11 06:30:12;;;;;;;3.88;0.60;;;6.00;99.90;;;;;;5018992;28;20159;-66
2023/04/11 06:32:38;;;;;;;5.85;0.85;;;6.30;99.90;;;;;;5008715;28;20036;-68
2023/04/11 06:35:04;;;;;;;6.45;0.80;;;5.90;99.90;;;;;;5013757;28;20480;-68
2023/04/11 06:37:30;;;;;;;6.72;0.95;;;6.00;99.90;;;;;;5016551;28;20046;-66
2023/04/11 06:39:59;;;;;;;3.75;0.80;;;6.30;99.90;;;;;;5017266;28;20077;-66
2023/04/11 06:42:25;;;;;;;6.22;1.25;;;6.20;99.90;;;;;;5031014;28;20337;-67
2023/04/11 06:44:51;;;;;;;4.00;0.63;;;6.30;99.90;;;;;;5008953;28;20554;-68
2023/04/11 06:47:16;;;;;;;6.43;0.60;;;6.60;99.90;;;;;;5013131;28;20709;-67
2023/04/11 06:49:42;;;;;;;4.22;0.52;;;6.00;99.90;;;;;;5009323;28;20045;-66
2023/04/11 06:52:08;;;;;;;8.40;1.05;;;6.60;99.90;;;;;;5012112;28;20041;-67
2023/04/11 06:54:33;;;;;;;6.90;0.60;;;6.10;99.90;;;;;;5011688;28;20040;-67
2023/04/11 06:56:59;;;;;;;8.95;0.73;;;6.70;99.90;;;;;;5020056;28;20069;-68
2023/04/11 06:59:25;;;;;;;6.07;0.82;;;6.40;99.90;;;;;;5019925;28;20119;-67
2023/04/11 07:01:51;;;;;;;6.00;0.30;;;6.10;99.90;;;;;;5017190;28;20045;-66
2023/04/11 07:04:16;;;;;;;6.32;0.65;;;6.20;99.90;;;;;;5017055;28;20594;-67
2023/04/11 07:06:42;;;;;;;5.57;0.40;;;6.50;99.90;;;;;;5000732;28;20328;-67
2023/04/11 07:09:14;;;;;;;9.07;0.60;;;6.30;99.90;;;;;;5004250;28;20526;-67
2023/04/11 07:11:40;;;;;;;9.35;0.40;;;6.60;99.90;;;;;;5020449;28;20136;-67
2023/04/11 07:14:06;;;;;;;10.25;0.73;;;5.70;99.90;;;;;;5001921;28;20053;-66
2023/04/11 07:16:32;;;;;;;7.38;0.40;;;6.20;99.90;;;;;;5019845;28;20064;-66
2023/04/11 07:18:58;;;;;;;6.20;0.40;;;6.40;99.90;;;;;;5019156;28;20735;-67
2023/04/11 07:21:26;;;;;;;7.95;0.32;;;6.40;99.90;;;;;;5014290;28;20049;-67
2023/04/11 07:23:52;;;;;;;7.38;0.50;;;6.40;99.90;;;;;;5018832;28;20140;-67
2023/04/11 07:26:17;;;;;;;3.80;0.25;;;6.50;99.90;;;;;;5027083;28;20066;-67
2023/04/11 07:28:43;;;;;;;8.35;0.55;;;6.20;99.90;;;;;;5012107;28;20329;-67
2023/04/11 07:31:10;;;;;;;8.75;0.40;;;6.10;99.90;;;;;;5031337;28;20032;-67
2023/04/11 07:33:37;;;;;;;6.35;0.50;;;5.90;99.90;;;;;;5018325;28;20041;-67
2023/04/11 07:36:03;;;;;;;7.82;0.40;;;5.80;99.90;;;;;;5017253;28;20621;-67
2023/04/11 07:38:29;;;;;;;9.63;0.68;;;6.10;99.90;;;;;;5034134;28;20434;-67
2023/04/11 07:40:57;;;;;;;8.13;0.65;;;5.80;99.90;;;;;;4998634;28;20105;-68
2023/04/11 07:43:24;;;;;;;9.73;0.90;;;6.00;99.90;;;;;;4999433;28;20045;-67
2023/04/11 07:45:50;;;;;;;9.25;0.70;;;6.90;99.90;;;;;;5006323;28;20041;-67
2023/04/11 07:48:16;;;;;;;14.10;1.02;;;6.60;99.90;;;;;;5012210;28;20323;-67
2023/04/11 07:50:42;;;;;;;9.82;1.48;;;7.40;99.90;;;;;;5005745;28;20462;-67
2023/04/11 07:53:09;;;;;;;9.65;1.10;;;6.80;99.90;;;;;;5015176;28;20073;-66
2023/04/11 07:55:36;;;;;;;13.30;1.27;;;7.30;99.90;;;;;;5019339;28;20102;-66
2023/04/11 07:58:02;;;;;;;12.20;1.30;;;6.80;99.90;;;;;;5011440;28;20036;-66
2023/04/11 08:00:31;;;;;;;9.23;1.30;;;7.70;99.90;;;;;;5022480;28;20192;-66
2023/04/11 08:03:01;;;;;;;15.30;2.03;;;7.70;99.90;;;;;;5011665;28;20147;-67
2023/04/11 08:05:28;;;;;;;17.45;1.88;;;7.10;99.90;;;;;;5021104;28;20091;-66
2023/04/11 08:07:54;;;;;;;13.65;1.67;;;7.60;99.90;;;;;;5008934;28;20053;-66
2023/04/11 08:10:20;;;;;;;13.20;1.27;;;7.70;99.90;;;;;;5001384;28;20033;-66
2023/04/11 08:12:45;;;;;;;12.02;1.70;;;8.00;99.90;;;;;;5018355;28;20475;-67
2023/04/11 08:15:11;;;;;;;16.60;1.73;;;7.90;99.90;;;;;;5023018;28;20131;-66
2023/04/11 08:17:37;;;;;;;17.85;1.90;;;8.00;99.90;;;;;;5015022;28;20095;-69
2023/04/11 08:20:12;;;;;;;14.85;2.50;;;8.10;99.90;;;;;;5017398;28;20797;-66
2023/04/11 08:22:41;;;;;;;16.88;2.45;;;8.40;99.90;;;;;;5016589;28;20246;-66
2023/04/11 08:25:08;;;;;;;16.50;1.63;;;8.40;99.90;;;;;;5024720;28;20051;-67
2023/04/11 08:27:34;;;;;;;13.05;1.50;;;8.50;99.90;;;;;;5009033;28;20076;-66
2023/04/11 08:30:00;;;;;;;15.18;1.77;;;8.60;99.90;;;;;;5015070;28;20049;-67
2023/04/11 08:32:26;;;;;;;16.30;1.48;;;8.70;99.90;;;;;;5033976;28;20041;-67
2023/04/11 08:34:52;;;;;;;11.07;1.48;;;8.70;99.90;;;;;;5021323;28;20162;-67
2023/04/11 08:37:17;;;;;;;14.73;1.70;;;8.90;99.90;;;;;;4999229;28;20041;-66
2023/04/11 08:39:43;;;;;;;10.20;0.98;;;8.90;99.90;;;;;;4999352;28;20042;-66
2023/04/11 08:42:29;;;;;;;9.95;1.38;;;8.90;1.00;;;;;;5033082;28;20427;-67
2023/04/11 08:45:03;;;;;;;16.17;1.60;;;8.70;99.90;;;;;;5014902;28;20833;-67
2023/04/11 08:47:29;;;;;;;10.20;1.05;;;8.60;99.90;;;;;;5033582;28;20925;-66
2023/04/11 08:49:55;;;;;;;7.13;0.60;;;8.40;99.90;;;;;;5005075;28;20169;-66
2023/04/11 08:52:22;;;;;;;5.63;0.40;;;8.10;99.90;;;;;;5024547;28;20052;-66
2023/04/11 08:54:50;;;;;;;9.85;0.85;;;8.20;99.90;;;;;;5031263;28;20049;-66
2023/04/11 08:57:26;;;;;;;3.20;0.30;;;8.30;1.00;;;;;;5017578;28;20439;-66
2023/04/11 08:59:58;;;;;;;5.22;0.40;;;8.10;99.90;;;;;;5026256;28;20133;-68
2023/04/11 09:02:24;;;;;;;6.20;0.60;;;7.60;99.90;;;;;;5018639;28;20041;-67
2023/04/11 09:04:50;;;;;;;7.20;0.70;;;7.20;99.90;;;;;;5020336;28;20042;-67
2023/04/11 09:07:17;;;;;;;10.63;1.00;;;7.20;99.90;;;;;;5027818;28;20045;-67
2023/04/11 09:09:44;;;;;;;7.78;1.52;;;7.60;99.90;;;;;;5019463;28;20746;-65
2023/04/11 09:12:10;;;;;;;11.38;1.50;;;8.30;1.00;;;;;;5012142;28;20068;-66
2023/04/11 09:14:36;;;;;;;9.52;0.80;;;9.30;99.90;;;;;;5020624;28;20045;-66
2023/04/11 09:17:04;;;;;;;10.07;1.50;;;10.10;99.90;;;;;;5019052;28;20172;-66
2023/04/11 09:19:32;;;;;;;7.50;0.95;;;10.90;99.90;;;;;;5019754;28;20128;-68
2023/04/11 09:22:05;;;;;;;4.72;0.40;;;11.20;85.70;;;;;;5026744;28;20523;-65
2023/04/11 09:24:31;;;;;;;4.03;0.30;;;9.20;99.90;;;;;;5020250;28;20135;-65
2023/04/11 09:27:14;;;;;;;3.25;0.30;;;8.10;99.90;;;;;;5020170;28;20045;-66
2023/04/11 09:29:44;;;;;;;5.05;0.47;;;7.50;99.90;;;;;;5018676;28;20044;-66
2023/04/11 09:32:32;;;;;;;8.52;0.70;;;7.20;99.90;;;;;;5020080;28;20045;-66
2023/04/11 09:35:11;;;;;;;8.68;0.70;;;8.10;99.90;;;;;;4996806;28;20629;-65
2023/04/11 09:37:51;;;;;;;7.57;0.77;;;8.70;99.90;;;;;;5021100;28;20042;-65
2023/04/11 09:40:19;;;;;;;12.20;1.33;;;9.20;99.90;;;;;;5038408;28;20044;-67
2023/04/11 09:42:45;;;;;;;9.80;1.10;;;9.30;99.90;;;;;;5019781;28;20281;-67
2023/04/11 09:45:22;;;;;;;12.15;1.52;;;9.30;99.90;;;;;;5019766;28;20491;-66
2023/04/11 09:47:50;;;;;;;11.07;1.38;;;9.50;99.90;;;;;;5016094;28;20045;-64
2023/04/11 09:50:16;;;;;;;16.48;1.58;;;9.50;99.90;;;;;;5037524;28;20053;-66
2023/04/11 09:52:43;;;;;;;9.20;0.85;;;9.30;99.90;;;;;;5030173;28;20680;-67
2023/04/11 09:55:11;;;;;;;10.68;1.15;;;9.10;99.90;;;;;;5017288;28;20128;-66
2023/04/11 09:57:41;;;;;;;10.68;1.30;;;8.90;99.90;;;;;;5040094;28;20045;-66
2023/04/11 10:00:17;;;;;;;11.55;1.00;;;8.90;99.90;;;;;;5012592;28;20124;-66
2023/04/11 10:02:44;;;;;;;10.73;0.90;;;8.60;99.90;;;;;;5001177;28;20041;-67
2023/04/11 10:05:12;;;;;;;10.80;1.00;;;8.50;99.90;;;;;;5018418;28;20606;-66
2023/04/11 10:07:44;;;;;;;9.85;0.93;;;8.40;99.90;;;;;;5019281;28;20114;-66
2023/04/11 10:10:22;;;;;;;6.47;0.80;;;8.30;99.90;;;;;;5034280;28;20081;-69
2023/04/11 10:12:48;;;;;;;7.18;0.65;;;8.20;1.00;;;;;;5034782;28;20084;-68
2023/04/11 10:15:15;;;;;;;10.60;1.00;;;8.40;99.90;;;;;;5016236;28;20446;-69
2023/04/11 10:17:41;;;;;;;10.75;1.10;;;8.80;99.90;;;;;;5011476;28;20613;-69
2023/04/11 10:20:39;;;;;;;8.00;0.98;;;9.60;99.90;;;;;;4999835;28;21816;-69
2023/04/11 10:23:06;;;;;;;8.25;1.23;;;10.20;1.00;;;;;;5016508;28;20226;-68
2023/04/11 10:25:47;;;;;;;15.05;2.30;;;10.80;99.90;;;;;;5011156;28;20731;-69
2023/04/11 10:28:32;;;;;;;7.70;0.60;;;11.50;1.00;;;;;;5026355;28;20150;-68
2023/04/11 10:31:03;;;;;;;7.95;0.82;;;12.00;99.90;;;;;;5016014;28;20052;-69
2023/04/11 10:33:30;;;;;;;8.27;0.95;;;12.10;99.90;;;;;;5033850;28;20550;-69
2023/04/11 10:36:02;;;;;;;8.07;0.75;;;12.00;99.90;;;;;;5017542;28;20064;-68
2023/04/11 10:38:40;;;;;;;7.00;0.50;;;11.40;99.90;;;;;;5016327;28;20529;-68
2023/04/11 10:41:24;;;;;;;3.83;0.30;;;10.70;99.90;;;;;;5014874;28;20072;-69
2023/04/11 10:43:50;;;;;;;5.70;0.40;;;9.80;99.90;;;;;;5019575;28;20427;-67
2023/04/11 10:46:24;;;;;;;7.47;0.90;;;9.40;1.00;;;;;;5014902;28;20499;-67
2023/04/11 10:49:04;;;;;;;4.25;0.55;;;9.60;99.90;;;;;;5014988;28;20575;-69
2023/04/11 10:51:33;;;;;;;7.75;0.73;;;9.50;1.00;;;;;;5018794;28;20402;-69
2023/04/11 10:54:00;;;;;;;7.93;0.47;;;8.90;1.00;;;;;;5035287;28;20041;-68
2023/04/11 10:56:51;;;;;;;8.65;1.00;;;8.60;1.00;;;;;;4997186;28;20077;-68
2023/04/11 10:59:33;;;;;;;6.65;0.75;;;8.20;99.90;;;;;;5016247;28;20073;-69
2023/04/11 11:02:00;;;;;;;12.77;0.90;;;8.10;99.90;;;;;;5016542;28;20049;-68
2023/04/11 11:04:37;;;;;;;11.80;1.20;;;8.10;99.90;;;;;;5013608;28;20061;-68
2023/04/11 11:07:05;;;;;;;11.23;1.00;;;8.30;48.70;;;;;;5035000;28;20124;-68
2023/04/11 11:09:32;;;;;;;6.47;0.63;;;9.10;99.90;;;;;;5008030;28;20168;-68
2023/04/11 11:12:12;;;;;;;8.48;0.90;;;10.30;99.90;;;;;;5013079;28;20045;-68
2023/04/11 11:14:43;;;;;;;8.45;1.08;;;10.90;1.00;;;;;;5009397;28;20137;-68
2023/04/11 11:17:11;;;;;;;7.50;1.08;;;10.70;1.00;;;;;;5020311;28;20044;-68
2023/04/11 11:19:41;;;;;;;6.32;0.75;;;10.80;99.90;;;;;;5026517;28;20041;-68
2023/04/11 11:22:14;;;;;;;12.57;0.90;;;10.80;1.00;;;;;;5033208;28;20492;-67
2023/04/11 11:24:39;;;;;;;3.33;0.40;;;10.40;86.70;;;;;;5033765;28;20049;-67
2023/04/11 11:27:05;;;;;;;7.93;0.65;;;10.20;1.00;;;;;;5017663;28;20088;-67
2023/04/11 11:29:33;;;;;;;7.47;0.40;;;10.10;99.90;;;;;;5000088;28;20098;-68
2023/04/11 11:32:02;;;;;;;7.75;0.70;;;9.00;17.50;;;;;;5024097;28;20044;-68
2023/04/11 11:34:29;;;;;;;3.47;0.45;;;7.90;99.90;;;;;;5013332;28;20053;-68
2023/04/11 11:36:56;;;;;;;8.38;0.70;;;7.60;99.90;;;;;;5033509;28;20037;-68
2023/04/11 11:39:23;;;;;;;11.52;1.15;;;7.20;99.90;;;;;;5027630;28;20127;-68
2023/04/11 11:41:49;;;;;;;8.77;1.00;;;7.30;99.90;;;;;;5037942;28;20427;-69
2023/04/11 11:44:30;;;;;;;7.85;0.88;;;7.20;99.90;;;;;;4997440;28;20053;-69
2023/04/11 11:47:14;;;;;;;8.90;1.13;;;6.90;99.90;;;;;;5018586;28;20341;-69
2023/04/11 11:49:49;;;;;;;;;;;7.50;99.90;;;;;;5018454;28;20045;-67
2023/04/11 11:52:36;;;;;;;13.30;1.05;;;7.60;99.90;;;;;;5017210;28;19932;-67
2023/04/11 11:55:04;;;;;;;13.20;1.20;;;7.80;99.90;;;;;;5000782;28;20458;-68
2023/04/11 11:57:33;;;;;;;10.10;1.20;;;7.70;99.90;;;;;;5012906;28;20139;-68
2023/04/11 12:00:01;;;;;;;12.32;1.00;;;7.80;99.90;;;;;;5021022;28;20112;-68
2023/04/11 12:02:27;;;;;;;10.40;1.23;;;8.00;99.90;;;;;;5017139;28;20362;-69
2023/04/11 12:04:58;;;;;;;13.48;1.40;;;8.00;99.90;;;;;;5001793;28;20402;-68
2023/04/11 12:07:24;;;;;;;11.82;1.50;;;8.00;99.90;;;;;;5019491;28;20281;-68
2023/04/11 12:10:00;;;;;;;9.60;1.23;;;8.30;99.90;;;;;;5024499;28;20045;-69
2023/04/11 12:12:33;;;;;;;15.27;1.45;;;8.00;1.00;;;;;;5001470;28;20036;-68
2023/04/11 12:14:59;;;;;;;10.40;1.20;;;8.40;1.00;;;;;;5020420;28;20568;-69
2023/04/11 12:17:30;;;;;;;11.65;1.25;;;8.70;99.90;;;;;;5019100;28;20766;-67
2023/04/11 12:19:55;;;;;;;14.00;1.00;;;9.00;99.90;;;;;;5038250;28;20076;-67
2023/04/11 12:22:21;;;;;;;9.25;1.20;;;9.20;99.90;;;;;;5013639;28;20056;-67
2023/04/11 12:24:51;;;;;;;14.98;1.65;;;9.10;99.90;;;;;;5015214;28;20555;-68
2023/04/11 12:27:17;;;;;;;13.98;1.52;;;9.10;99.90;;;;;;5017619;28;20076;-67
2023/04/11 12:29:45;;;;;;;11.35;1.38;;;9.10;99.90;;;;;;5029802;28;20103;-66
2023/04/11 12:32:10;;;;;;;8.38;1.10;;;9.10;99.90;;;;;;5000589;28;20056;-68
2023/04/11 12:34:36;;;;;;;4.65;0.25;;;8.20;99.90;;;;;;5022265;28;20522;-66
2023/04/11 12:37:02;;;;;;;5.13;0.40;;;7.90;99.90;;;;;;5018891;28;20141;-66
2023/04/11 12:39:27;;;;;;;7.38;0.85;;;8.00;99.90;;;;;;5010976;28;20479;-67
2023/04/11 12:41:53;;;;;;;8.20;0.98;;;9.10;99.90;;;;;;5026115;28;20049;-67
2023/04/11 12:44:19;;;;;;;11.20;1.30;;;10.20;99.90;;;;;;5036470;28;20054;-66
2023/04/11 12:46:45;;;;;;;11.65;1.13;;;11.10;99.90;;;;;;5017025;28;20489;-66
2023/04/11 12:49:10;;;;;;;14.90;1.60;;;11.10;99.90;;;;;;5012737;28;20037;-66
2023/04/11 12:51:36;;;;;;;8.73;0.88;;;10.50;99.90;;;;;;5008969;28;20317;-66
2023/04/11 12:54:02;;;;;;;12.85;1.13;;;9.70;1.00;;;;;;5020409;28;20374;-67
2023/04/11 12:56:28;;;;;;;10.65;1.35;;;9.10;99.90;;;;;;5011757;28;20050;-65